Mercini Lady — A8DL4 — position and weather

sailwx.info

Track history (hours):
 
Tides and Currents Weather Stations Pressure Air Temp Water Temp Dewpoint Dewpoint Depression Visibility Wind Speed Wind Dir Waves Ship Positions

Mercini Lady

Last reported at 2018-Apr-08 04:01 UTC. Time now 2018-May-22 23:41 UTC.
Position N 21°32' E 069°02'.
Warning: this ship's position is 44 days out of date.

Length 182 m; draft 7.5 m.

Type: Tanker. MMSI: 636012102.

Date/timePositionNaut miles runAvg speedWind from/ knotsBaromVisibWave heightAir tempDewpointWater temp
2018-Apr-08 04:01N 21°32' E 069°02'311.6
2018-Apr-08 03:46N 21°30' E 069°03'5111.5
2018-Apr-07 23:22N 20°42' E 069°23'411.9
2018-Apr-07 23:00N 20°38' E 069°25'612.1
2018-Apr-07 22:30N 20°33' E 069°27'612.0
2018-Apr-07 22:00N 20°27' E 069°29'611.9
2018-Apr-07 21:30N 20°22' E 069°32'712.0
2018-Apr-07 20:53N 20°15' E 069°35'512.0
2018-Apr-07 20:28N 20°10' E 069°37'611.9
2018-Apr-07 19:58N 20°05' E 069°39'1311.9
2018-Apr-07 18:51N 19°52' E 069°44'411.4
2018-Apr-07 18:30N 19°49' E 069°46'611.4
2018-Apr-07 18:00N 19°43' E 069°48'611.5
2018-Apr-07 17:30N 19°38' E 069°50'611.6
2018-Apr-07 17:00N 19°32' E 069°52'511.2
2018-Apr-07 16:30N 19°27' E 069°55'510.9
2018-Apr-07 16:00N 19°22' E 069°57'611.0
2018-Apr-07 15:30N 19°17' E 069°59'611.3
2018-Apr-07 15:00N 19°12' E 070°01'611.4
2018-Apr-07 14:30N 19°07' E 070°03'611.4
2018-Apr-07 13:59N 19°01' E 070°05'611.4
2018-Apr-07 13:29N 18°56' E 070°08'511.5
2018-Apr-07 13:00N 18°51' E 070°10'611.8
2018-Apr-07 12:30N 18°45' E 070°12'1011.4
2018-Apr-07 11:36N 18°36' E 070°16'211.5
2018-Apr-07 11:23N 18°33' E 070°17'511.6
2018-Apr-07 11:00N 18°29' E 070°19'1811.7
2018-Apr-07 09:26N 18°11' E 070°24'711.7
2018-Apr-07 08:52N 18°05' E 070°26'711.8
2018-Apr-07 08:15N 17°58' E 070°28'311.9
2018-Apr-07 08:00N 17°55' E 070°29'2211.9
2018-Apr-07 06:10N 17°35' E 070°36'311.8
2018-Apr-07 05:57N 17°32' E 070°37'7911.2
2018-Apr-06 22:53N 16°19' E 071°06'411.2
2018-Apr-06 22:30N 16°15' E 071°08'9011.3
2018-Apr-06 14:29N 14°59' E 071°59'611.5
2018-Apr-06 14:00N 14°54' E 072°02'  
Track history (hours):
 
Tides and Currents Weather Stations Pressure Air Temp Water Temp Dewpoint Dewpoint Depression Visibility Wind Speed Wind Dir Waves Ship Positions

Mercini Lady

Last reported at 2018-Apr-08 04:01 UTC. Time now 2018-May-22 23:41 UTC.
Position N 21°32' E 069°02'.
Warning: this ship's position is 44 days out of date.

Length 182 m; draft 7.5 m.

Type: Tanker. MMSI: 636012102.

Date/timePositionNaut miles runAvg speedWind from/ knotsBaromVisibWave heightAir tempDewpointWater temp
2018-Apr-08 04:01N 21°32' E 069°02'311.6
2018-Apr-08 03:46N 21°30' E 069°03'5111.5
2018-Apr-07 23:22N 20°42' E 069°23'411.9
2018-Apr-07 23:00N 20°38' E 069°25'612.1
2018-Apr-07 22:30N 20°33' E 069°27'612.0
2018-Apr-07 22:00N 20°27' E 069°29'611.9
2018-Apr-07 21:30N 20°22' E 069°32'712.0
2018-Apr-07 20:53N 20°15' E 069°35'512.0
2018-Apr-07 20:28N 20°10' E 069°37'611.9
2018-Apr-07 19:58N 20°05' E 069°39'1311.9
2018-Apr-07 18:51N 19°52' E 069°44'411.4
2018-Apr-07 18:30N 19°49' E 069°46'611.4
2018-Apr-07 18:00N 19°43' E 069°48'611.5
2018-Apr-07 17:30N 19°38' E 069°50'611.6
2018-Apr-07 17:00N 19°32' E 069°52'511.2
2018-Apr-07 16:30N 19°27' E 069°55'510.9
2018-Apr-07 16:00N 19°22' E 069°57'611.0
2018-Apr-07 15:30N 19°17' E 069°59'611.3
2018-Apr-07 15:00N 19°12' E 070°01'611.4
2018-Apr-07 14:30N 19°07' E 070°03'611.4
2018-Apr-07 13:59N 19°01' E 070°05'611.4
2018-Apr-07 13:29N 18°56' E 070°08'511.5
2018-Apr-07 13:00N 18°51' E 070°10'611.8
2018-Apr-07 12:30N 18°45' E 070°12'1011.4
2018-Apr-07 11:36N 18°36' E 070°16'211.5
2018-Apr-07 11:23N 18°33' E 070°17'511.6
2018-Apr-07 11:00N 18°29' E 070°19'1811.7
2018-Apr-07 09:26N 18°11' E 070°24'711.7
2018-Apr-07 08:52N 18°05' E 070°26'711.8
2018-Apr-07 08:15N 17°58' E 070°28'311.9
2018-Apr-07 08:00N 17°55' E 070°29'2211.9
2018-Apr-07 06:10N 17°35' E 070°36'311.8
2018-Apr-07 05:57N 17°32' E 070°37'7911.2
2018-Apr-06 22:53N 16°19' E 071°06'411.2
2018-Apr-06 22:30N 16°15' E 071°08'9011.3
2018-Apr-06 14:29N 14°59' E 071°59'611.5
2018-Apr-06 14:00N 14°54' E 072°02'  

Dump ship's entire track history